Terminal Aerodrome Forecast
Issued by NWS Sioux Falls, SD

Home | Current Version | Previous Version | Text Only | Print | Product List | Glossary On
Versions: 1 2 3 4 5 6 7 8 9 10 11 12 13 14 15 16 17 18 19 20 21 22 23 24 25 26 27 28 29
000
FTUS43 KFSD 261547 AAA
TAFSUX
TAF AMD
KSUX 261547Z 2616/2712 32005KT P6SM SCT007 OVC014
      TEMPO 2616/2618 BKN007
     FM261800 36005KT P6SM SCT015 BKN070
     FM262000 32011KT P6SM BKN080
     FM270100 27005KT P6SM SCT200=

USA.gov is the U.S. government's official web portal to all federal, state and local government web resources and services.